createdAt,value
2022-09-13T00:00:27.004Z,7.75
2022-09-13T00:00:59.962Z,12.95
2022-09-13T00:01:32.517Z,7.22
2022-09-13T00:02:05.268Z,8.60
2022-09-13T00:02:37.618Z,7.55
2022-09-13T00:03:10.705Z,7.07
2022-09-13T00:03:43.141Z,10.80
2022-09-13T00:04:15.809Z,7.60
2022-09-13T00:04:48.120Z,9.45
2022-09-13T00:05:20.341Z,7.80
2022-09-13T00:05:52.841Z,9.82
2022-09-13T00:06:25.186Z,9.35
2022-09-13T00:06:57.439Z,8.10
2022-09-13T00:07:29.772Z,7.43
2022-09-13T00:08:02.322Z,9.18
2022-09-13T00:08:34.631Z,9.38
2022-09-13T00:09:07.216Z,7.75
2022-09-13T00:09:39.561Z,8.23
2022-09-13T00:10:12.472Z,9.65
2022-09-13T00:10:45.532Z,7.90
2022-09-13T00:11:20.136Z,7.72
2022-09-13T00:11:52.461Z,7.85
2022-09-13T00:12:24.983Z,11.75
2022-09-13T00:12:57.347Z,11.07
2022-09-13T00:13:29.895Z,11.77
2022-09-13T00:14:02.873Z,8.43
2022-09-13T00:14:35.262Z,6.38
2022-09-13T00:15:08.637Z,10.05
2022-09-13T00:15:48.093Z,8.75
2022-09-13T00:16:21.557Z,8.95
2022-09-13T00:16:53.918Z,7.75
2022-09-13T00:17:26.884Z,9.43
2022-09-13T00:17:59.133Z,9.90
2022-09-13T00:18:31.480Z,6.30
2022-09-13T00:19:03.961Z,12.75
2022-09-13T00:19:36.296Z,9.35
2022-09-13T00:20:08.880Z,11.40
2022-09-13T00:20:41.189Z,6.25
2022-09-13T00:21:15.684Z,8.90
2022-09-13T00:21:48.862Z,11.63
2022-09-13T00:22:21.187Z,7.53
2022-09-13T00:22:53.585Z,7.80
2022-09-13T00:23:25.919Z,7.80
2022-09-13T00:23:58.395Z,10.60
2022-09-13T00:24:30.728Z,8.13
2022-09-13T00:25:04.213Z,6.32
2022-09-13T00:25:36.556Z,7.97
2022-09-13T00:26:10.713Z,8.52
2022-09-13T00:26:43.192Z,8.30
2022-09-13T00:27:15.478Z,9.38
2022-09-13T00:27:48.345Z,7.93
2022-09-13T00:28:20.789Z,12.88
2022-09-13T00:28:54.284Z,11.40
2022-09-13T00:29:27.096Z,9.18
2022-09-13T00:29:59.459Z,6.57
2022-09-13T00:30:31.950Z,11.40
2022-09-13T00:31:05.228Z,11.15
2022-09-13T00:31:37.924Z,12.60
2022-09-13T00:32:10.493Z,7.97
2022-09-13T00:32:42.864Z,8.60
2022-09-13T00:33:15.136Z,8.88
2022-09-13T00:33:47.760Z,7.38
2022-09-13T00:34:20.024Z,8.30
2022-09-13T00:34:52.486Z,8.35
2022-09-13T00:35:25.127Z,12.05
2022-09-13T00:35:57.516Z,8.25
2022-09-13T00:36:29.799Z,5.70
2022-09-13T00:37:02.312Z,9.30
2022-09-13T00:37:34.811Z,7.45
2022-09-13T00:38:07.237Z,10.85
2022-09-13T00:38:39.914Z,9.55
2022-09-13T00:39:12.587Z,8.68
2022-09-13T00:39:47.991Z,9.57
2022-09-13T00:40:22.769Z,7.40
2022-09-13T00:40:55.114Z,6.32
2022-09-13T00:41:27.591Z,8.80
2022-09-13T00:42:00.104Z,8.73
2022-09-13T00:42:35.653Z,8.07
2022-09-13T00:43:14.373Z,9.55
2022-09-13T00:44:06.616Z,8.35
2022-09-13T00:44:57.831Z,7.47
2022-09-13T00:45:30.166Z,10.75
2022-09-13T00:46:02.723Z,8.65
2022-09-13T00:46:34.984Z,13.02
2022-09-13T00:47:07.269Z,10.05
2022-09-13T00:47:53.573Z,9.57
2022-09-13T00:48:25.857Z,6.18
2022-09-13T00:49:18.408Z,7.35
2022-09-13T00:49:53.376Z,5.55
2022-09-13T00:50:31.783Z,8.73
2022-09-13T00:51:06.801Z,11.15
2022-09-13T00:51:40.187Z,7.05
2022-09-13T00:52:16.139Z,8.85
2022-09-13T00:52:52.312Z,11.35
2022-09-13T00:53:26.696Z,9.50
2022-09-13T00:54:00.068Z,9.07
2022-09-13T00:54:36.787Z,10.70
2022-09-13T00:55:13.795Z,6.82
2022-09-13T00:55:46.140Z,9.27
2022-09-13T00:56:22.834Z,6.47
2022-09-13T00:56:57.290Z,8.77
2022-09-13T00:57:30.799Z,6.25
2022-09-13T00:58:05.746Z,10.15
2022-09-13T00:58:41.515Z,9.98
2022-09-13T00:59:16.105Z,7.75
2022-09-13T00:59:53.487Z,8.75
2022-09-13T01:00:26.096Z,9.93
2022-09-13T01:01:03.731Z,7.88
2022-09-13T01:01:41.403Z,9.10
2022-09-13T01:02:14.112Z,9.88
2022-09-13T01:02:53.246Z,7.88
2022-09-13T01:03:27.761Z,12.65
2022-09-13T01:04:01.274Z,7.43
2022-09-13T01:04:35.715Z,8.60
2022-09-13T01:05:08.535Z,9.00
2022-09-13T01:05:46.049Z,7.95
2022-09-13T01:06:20.723Z,7.57
2022-09-13T01:06:54.707Z,9.90
2022-09-13T01:07:27.060Z,11.10
2022-09-13T01:08:00.362Z,9.00
2022-09-13T01:08:33.135Z,11.70
2022-09-13T01:09:06.432Z,9.30
2022-09-13T01:09:41.894Z,8.00
2022-09-13T01:10:14.364Z,7.20
2022-09-13T01:10:49.777Z,8.10
2022-09-13T01:11:40.833Z,8.65
2022-09-13T01:12:25.888Z,10.57
2022-09-13T01:13:15.187Z,6.90
2022-09-13T01:13:48.206Z,7.90
2022-09-13T01:14:20.721Z,6.78
2022-09-13T01:14:53.578Z,10.55
2022-09-13T01:15:25.826Z,7.65
2022-09-13T01:15:58.297Z,7.85
2022-09-13T01:16:31.193Z,8.35
2022-09-13T01:17:03.591Z,7.35
2022-09-13T01:17:36.436Z,7.38
2022-09-13T01:18:09.647Z,7.45
2022-09-13T01:18:42.054Z,8.13
2022-09-13T01:19:14.408Z,7.55
2022-09-13T01:19:46.921Z,8.68
2022-09-13T01:20:19.193Z,7.40
2022-09-13T01:21:03.506Z,9.15
2022-09-13T01:21:48.256Z,7.35
2022-09-13T01:22:20.804Z,12.75
2022-09-13T01:23:05.340Z,12.63
2022-09-13T01:23:56.170Z,9.50
2022-09-13T01:24:37.556Z,7.63
2022-09-13T01:25:21.764Z,7.90
2022-09-13T01:26:12.894Z,13.68
2022-09-13T01:26:51.223Z,7.35
2022-09-13T01:27:26.239Z,6.80
2022-09-13T01:28:17.020Z,8.80
2022-09-13T01:28:52.007Z,7.32
2022-09-13T01:29:36.304Z,9.80
2022-09-13T01:30:08.536Z,9.88
2022-09-13T01:30:50.664Z,6.50
2022-09-13T01:31:46.177Z,8.52
2022-09-13T01:32:36.980Z,7.03
2022-09-13T01:33:21.594Z,11.70
2022-09-13T01:34:09.646Z,5.35
2022-09-13T01:34:50.887Z,9.00
2022-09-13T01:35:41.968Z,7.80
2022-09-13T01:36:32.922Z,5.55
2022-09-13T01:37:17.341Z,9.23
2022-09-13T01:38:12.276Z,7.18
2022-09-13T01:38:53.770Z,6.20
2022-09-13T01:39:44.654Z,9.60
2022-09-13T01:40:21.719Z,10.73
2022-09-13T01:41:12.692Z,9.27
2022-09-13T01:41:45.070Z,8.02
2022-09-13T01:42:21.397Z,7.55
2022-09-13T01:43:12.725Z,7.90
2022-09-13T01:43:54.213Z,8.20
2022-09-13T01:44:26.469Z,11.50
2022-09-13T01:45:17.422Z,9.38
2022-09-13T01:46:07.962Z,6.68
2022-09-13T01:47:00.637Z,9.00
2022-09-13T01:47:38.759Z,6.53
2022-09-13T01:48:14.034Z,9.88
2022-09-13T01:48:46.325Z,7.97
2022-09-13T01:49:33.508Z,11.85
2022-09-13T01:50:06.155Z,7.78
2022-09-13T01:50:43.202Z,10.90
2022-09-13T01:51:38.596Z,8.55
2022-09-13T01:52:10.864Z,7.95
2022-09-13T01:52:48.929Z,6.53
2022-09-13T01:53:21.214Z,9.18
2022-09-13T01:54:01.969Z,10.13
2022-09-13T01:54:34.317Z,8.25
2022-09-13T01:55:10.025Z,9.27
2022-09-13T01:55:56.472Z,10.07
2022-09-13T01:56:34.051Z,5.35
2022-09-13T01:57:10.954Z,6.70
2022-09-13T01:58:01.905Z,8.50
2022-09-13T01:58:40.470Z,10.23
2022-09-13T01:59:18.886Z,10.48
2022-09-13T01:59:53.737Z,10.35
2022-09-13T02:00:27.706Z,8.57
2022-09-13T02:01:06.222Z,9.65
2022-09-13T02:01:45.076Z,8.93
2022-09-13T02:02:30.699Z,8.43
2022-09-13T02:03:10.942Z,10.93
2022-09-13T02:03:54.322Z,7.78
2022-09-13T02:04:29.528Z,7.20
2022-09-13T02:05:07.590Z,6.60
2022-09-13T02:05:55.393Z,8.68
2022-09-13T02:06:30.553Z,8.93
2022-09-13T02:07:05.052Z,9.23
2022-09-13T02:07:41.205Z,9.93
2022-09-13T02:08:15.400Z,9.05
2022-09-13T02:08:49.908Z,8.13
2022-09-13T02:09:24.809Z,7.65
2022-09-13T02:10:00.002Z,8.38
2022-09-13T02:10:40.286Z,9.27
2022-09-13T02:11:17.518Z,8.43
2022-09-13T02:11:52.645Z,9.02
2022-09-13T02:12:26.407Z,8.68
2022-09-13T02:12:59.552Z,7.72
2022-09-13T02:13:36.543Z,9.90
2022-09-13T02:14:14.102Z,11.68
2022-09-13T02:14:50.261Z,8.82
2022-09-13T02:15:24.594Z,9.27
2022-09-13T02:15:59.299Z,8.02
2022-09-13T02:16:36.798Z,10.68
2022-09-13T02:17:26.284Z,12.05
2022-09-13T02:18:02.844Z,7.90
2022-09-13T02:18:36.739Z,12.07
2022-09-13T02:19:11.068Z,10.32
2022-09-13T02:19:57.587Z,7.00
2022-09-13T02:20:35.344Z,14.40
2022-09-13T02:21:21.393Z,11.02
2022-09-13T02:21:56.690Z,7.97
2022-09-13T02:22:32.299Z,14.10
2022-09-13T02:23:16.050Z,7.05
2022-09-13T02:23:50.310Z,12.82
2022-09-13T02:24:32.207Z,11.63
2022-09-13T02:25:10.088Z,10.77
2022-09-13T02:25:43.889Z,7.65
2022-09-13T02:26:16.222Z,7.18
2022-09-13T02:26:52.441Z,10.52
2022-09-13T02:27:26.123Z,10.38
2022-09-13T02:28:01.986Z,8.77
2022-09-13T02:28:36.728Z,10.75
2022-09-13T02:29:12.511Z,8.55
2022-09-13T02:29:46.406Z,9.52
2022-09-13T02:30:19.848Z,9.65
2022-09-13T02:30:53.676Z,10.30
2022-09-13T02:31:37.394Z,11.98
2022-09-13T02:32:12.559Z,9.27
2022-09-13T02:32:44.893Z,8.20
2022-09-13T02:33:19.490Z,10.52
2022-09-13T02:33:57.388Z,10.95
2022-09-13T02:34:34.924Z,7.60
2022-09-13T02:35:22.192Z,6.78
2022-09-13T02:35:59.064Z,8.38
2022-09-13T02:36:32.935Z,7.43
2022-09-13T02:37:05.761Z,9.68
2022-09-13T02:37:39.461Z,10.57
2022-09-13T02:38:15.626Z,8.20
2022-09-13T02:38:52.178Z,7.70
2022-09-13T02:39:27.365Z,10.55
2022-09-13T02:40:10.786Z,7.90
2022-09-13T02:40:46.686Z,11.05
2022-09-13T02:41:22.216Z,9.63
2022-09-13T02:41:57.107Z,8.85
2022-09-13T02:42:38.193Z,9.13
2022-09-13T02:43:16.240Z,10.18
2022-09-13T02:43:52.697Z,13.30
2022-09-13T02:44:31.440Z,8.88
2022-09-13T02:45:05.660Z,8.00
2022-09-13T02:45:42.572Z,11.52
2022-09-13T02:46:21.467Z,11.80
2022-09-13T02:46:56.675Z,9.80
2022-09-13T02:47:43.932Z,10.25
2022-09-13T02:48:25.810Z,8.63
2022-09-13T02:49:05.279Z,11.82
2022-09-13T02:49:43.880Z,11.27
2022-09-13T02:50:16.141Z,9.93
2022-09-13T02:50:59.285Z,11.75
2022-09-13T02:51:31.725Z,10.68
2022-09-13T02:52:06.801Z,9.25
2022-09-13T02:52:56.437Z,10.15
2022-09-13T02:53:50.804Z,8.27
2022-09-13T02:54:49.325Z,8.95
2022-09-13T02:55:40.775Z,10.43
2022-09-13T02:56:13.251Z,10.32
2022-09-13T02:56:52.607Z,9.93
2022-09-13T02:57:36.692Z,10.25
2022-09-13T02:58:08.952Z,9.23
2022-09-13T02:58:52.488Z,11.55
2022-09-13T02:59:25.074Z,9.35
2022-09-13T02:59:57.390Z,9.02
2022-09-13T03:00:29.934Z,11.88
2022-09-13T03:01:02.254Z,10.52
2022-09-13T03:01:35.660Z,10.13
2022-09-13T03:02:10.351Z,8.98
2022-09-13T03:02:44.114Z,8.07
2022-09-13T03:03:16.726Z,10.95
2022-09-13T03:03:49.638Z,9.15
2022-09-13T03:04:21.981Z,8.32
2022-09-13T03:04:54.329Z,10.85
2022-09-13T03:05:26.639Z,9.80
2022-09-13T03:05:59.859Z,14.55
2022-09-13T03:06:32.265Z,11.20
2022-09-13T03:07:06.899Z,7.63
2022-09-13T03:07:39.462Z,12.75
2022-09-13T03:08:13.255Z,11.23
2022-09-13T03:08:45.764Z,11.25
2022-09-13T03:09:18.254Z,9.02
2022-09-13T03:09:53.534Z,12.13
2022-09-13T03:10:31.257Z,11.20
2022-09-13T03:11:09.497Z,12.77
2022-09-13T03:12:14.051Z,10.48
2022-09-13T03:13:01.580Z,11.30
2022-09-13T03:13:45.912Z,8.15
2022-09-13T03:14:20.824Z,8.43
2022-09-13T03:14:57.375Z,12.27
2022-09-13T03:15:41.596Z,10.90
2022-09-13T03:16:19.712Z,13.48
2022-09-13T03:16:55.334Z,13.55
2022-09-13T03:17:35.370Z,10.40
2022-09-13T03:18:24.342Z,9.80
2022-09-13T03:19:05.562Z,12.23
2022-09-13T03:19:44.150Z,14.30
2022-09-13T03:20:32.062Z,13.90
2022-09-13T03:21:10.181Z,14.02
2022-09-13T03:21:45.468Z,12.45
2022-09-13T03:22:20.830Z,9.82
2022-09-13T03:22:56.050Z,13.05
2022-09-13T03:23:36.143Z,12.25
2022-09-13T03:24:59.331Z,9.75
2022-09-13T03:25:31.580Z,13.18
2022-09-13T03:26:06.939Z,14.00
2022-09-13T03:26:59.433Z,10.48
2022-09-13T03:27:34.800Z,11.38
2022-09-13T03:28:19.537Z,14.40
2022-09-13T03:28:55.606Z,10.05
2022-09-13T03:29:40.455Z,11.30
2022-09-13T03:30:14.404Z,10.90
2022-09-13T03:30:50.996Z,14.35
2022-09-13T03:31:40.467Z,10.30
2022-09-13T03:32:31.051Z,10.10
2022-09-13T03:33:07.604Z,11.60
2022-09-13T03:33:47.078Z,9.50
2022-09-13T03:34:34.662Z,12.90
2022-09-13T03:35:12.258Z,9.90
2022-09-13T03:36:12.758Z,12.25
2022-09-13T03:36:52.181Z,11.63
2022-09-13T03:37:36.409Z,11.32
2022-09-13T03:38:19.795Z,11.57
2022-09-13T03:39:03.631Z,10.85
2022-09-13T03:39:44.470Z,12.43
2022-09-13T03:40:21.705Z,10.57
2022-09-13T03:40:58.967Z,10.95
2022-09-13T03:41:37.030Z,10.18
2022-09-13T03:42:20.455Z,10.18
2022-09-13T03:42:54.205Z,14.50
2022-09-13T03:43:35.995Z,14.88
2022-09-13T03:44:10.321Z,13.02
2022-09-13T03:44:44.823Z,16.10
2022-09-13T03:45:19.070Z,13.20
2022-09-13T03:45:53.852Z,13.75
2022-09-13T03:46:32.826Z,11.95
2022-09-13T03:47:05.964Z,13.68
2022-09-13T03:47:40.642Z,12.93
2022-09-13T03:48:13.783Z,10.15
2022-09-13T03:48:46.612Z,11.20
2022-09-13T03:49:20.416Z,14.10
2022-09-13T03:49:53.475Z,12.70
2022-09-13T03:50:26.553Z,15.00
2022-09-13T03:50:58.996Z,11.55
2022-09-13T03:51:31.567Z,11.85
2022-09-13T03:52:04.088Z,11.00
2022-09-13T03:52:36.753Z,11.68
2022-09-13T03:53:12.710Z,13.50
2022-09-13T03:53:50.736Z,11.18
2022-09-13T03:54:24.779Z,16.90
2022-09-13T03:54:58.078Z,13.13
2022-09-13T03:55:31.769Z,13.05
2022-09-13T03:56:14.491Z,11.43
2022-09-13T03:57:05.796Z,9.32
2022-09-13T03:57:38.134Z,14.40
2022-09-13T03:58:11.794Z,15.95
2022-09-13T03:58:44.352Z,11.50
2022-09-13T03:59:16.660Z,11.10
2022-09-13T03:59:57.986Z,14.23
2022-09-13T04:00:30.458Z,10.70
2022-09-13T04:01:02.736Z,15.18
2022-09-13T04:01:35.064Z,14.75
2022-09-13T04:02:10.273Z,9.82
2022-09-13T04:02:42.775Z,14.77
2022-09-13T04:03:15.420Z,7.97
2022-09-13T04:03:47.885Z,15.20
2022-09-13T04:04:20.284Z,14.75
2022-09-13T04:04:52.975Z,13.88
2022-09-13T04:05:25.310Z,17.98
2022-09-13T04:05:57.747Z,13.60
2022-09-13T04:06:30.043Z,13.77
2022-09-13T04:07:04.444Z,12.32
2022-09-13T04:07:36.707Z,14.98
2022-09-13T04:08:09.157Z,14.85
2022-09-13T04:08:41.540Z,19.15
2022-09-13T04:09:14.263Z,21.73
2022-09-13T04:09:46.782Z,18.60
2022-09-13T04:10:19.175Z,19.75
2022-09-13T04:10:52.380Z,20.15
2022-09-13T04:11:25.407Z,21.33
2022-09-13T04:11:57.979Z,16.00
2022-09-13T04:12:31.352Z,24.75
2022-09-13T04:13:03.898Z,20.88
2022-09-13T04:13:36.937Z,19.63
2022-09-13T04:14:10.187Z,20.00
2022-09-13T04:14:44.038Z,28.85
2022-09-13T04:15:17.091Z,21.52
2022-09-13T04:15:50.401Z,25.63
2022-09-13T04:16:22.751Z,28.10
2022-09-13T04:16:55.775Z,27.17
2022-09-13T04:17:28.153Z,21.05
2022-09-13T04:18:01.111Z,16.10
2022-09-13T04:18:33.743Z,17.88
2022-09-13T04:19:06.201Z,21.25
2022-09-13T04:19:38.880Z,15.95
2022-09-13T04:20:11.610Z,17.38
2022-09-13T04:20:44.391Z,29.38
2022-09-13T04:21:16.886Z,16.45
2022-09-13T04:21:49.741Z,13.45
2022-09-13T04:22:22.042Z,20.60
2022-09-13T04:22:55.057Z,14.63
2022-09-13T04:23:28.387Z,16.08
2022-09-13T04:24:00.732Z,15.50
2022-09-13T04:24:33.179Z,21.55
2022-09-13T04:25:06.215Z,22.40
2022-09-13T04:25:40.714Z,15.93
2022-09-13T04:26:13.380Z,16.70
2022-09-13T04:26:54.838Z,19.02
2022-09-13T04:27:27.098Z,33.13
2022-09-13T04:28:00.223Z,18.63
2022-09-13T04:28:32.507Z,19.48
2022-09-13T04:29:05.164Z,35.75
2022-09-13T04:29:37.589Z,18.58
2022-09-13T04:30:10.250Z,21.13
2022-09-13T04:30:44.259Z,21.20
2022-09-13T04:31:16.821Z,14.34
2022-09-13T04:31:50.029Z,16.64
2022-09-13T04:32:22.463Z,23.65
2022-09-13T04:32:58.334Z,16.50
2022-09-13T04:33:31.657Z,17.42
2022-09-13T04:34:04.613Z,21.23
2022-09-13T04:34:37.494Z,23.12
2022-09-13T04:35:10.193Z,21.45
2022-09-13T04:35:42.450Z,31.58
2022-09-13T04:36:15.006Z,16.08
2022-09-13T04:36:47.269Z,17.38
2022-09-13T04:37:19.753Z,15.77
2022-09-13T04:37:55.090Z,14.82
2022-09-13T04:38:27.972Z,20.27
2022-09-13T04:39:00.759Z,16.33
2022-09-13T04:39:33.083Z,17.48
2022-09-13T04:40:06.700Z,17.15
2022-09-13T04:40:39.657Z,18.58
2022-09-13T04:41:13.797Z,19.88
2022-09-13T04:41:48.445Z,16.23
2022-09-13T04:42:20.774Z,34.03
2022-09-13T04:42:53.076Z,15.82
2022-09-13T04:43:25.724Z,19.90
2022-09-13T04:43:57.995Z,16.75
2022-09-13T04:44:30.244Z,20.08
2022-09-13T04:45:03.343Z,16.27
2022-09-13T04:45:37.097Z,18.30
2022-09-13T04:46:09.630Z,24.60
2022-09-13T04:46:42.030Z,21.48
2022-09-13T04:47:14.293Z,15.82
2022-09-13T04:47:51.098Z,18.50
2022-09-13T04:48:23.380Z,15.52
2022-09-13T04:48:56.136Z,16.95
2022-09-13T04:49:28.878Z,19.00
2022-09-13T04:50:01.182Z,15.88
2022-09-13T04:50:33.624Z,20.48
2022-09-13T04:51:07.751Z,17.90
2022-09-13T04:51:40.388Z,21.35
2022-09-13T04:52:12.776Z,14.38
2022-09-13T04:52:45.409Z,17.20
2022-09-13T04:53:18.525Z,14.10
2022-09-13T04:53:57.363Z,17.90
2022-09-13T04:54:29.811Z,19.17
2022-09-13T04:55:03.141Z,19.45
2022-09-13T04:55:36.925Z,20.02
2022-09-13T04:56:10.608Z,24.08
2022-09-13T04:56:43.165Z,18.13
2022-09-13T04:57:16.720Z,14.13
2022-09-13T04:57:53.193Z,17.92
2022-09-13T04:58:25.559Z,15.80
2022-09-13T04:58:57.913Z,16.17
2022-09-13T04:59:30.407Z,17.25
2022-09-13T05:00:03.289Z,18.48
2022-09-13T05:00:36.058Z,16.35
2022-09-13T05:01:09.705Z,20.88
2022-09-13T05:01:42.163Z,19.23
2022-09-13T05:02:14.723Z,16.30
2022-09-13T05:02:47.388Z,23.60
2022-09-13T05:03:19.624Z,14.23
2022-09-13T05:03:52.880Z,17.75
2022-09-13T05:04:25.218Z,18.13
2022-09-13T05:04:57.485Z,15.95
2022-09-13T05:05:31.294Z,16.23
2022-09-13T05:06:07.100Z,14.40
2022-09-13T05:06:39.479Z,26.80
2022-09-13T05:07:11.745Z,15.93
2022-09-13T05:07:43.999Z,21.95
2022-09-13T05:08:16.273Z,20.33
2022-09-13T05:08:55.819Z,15.23
2022-09-13T05:09:28.065Z,16.42
2022-09-13T05:10:00.322Z,23.75
2022-09-13T05:10:32.684Z,15.32
2022-09-13T05:11:05.579Z,18.63
2022-09-13T05:11:37.822Z,25.10
2022-09-13T05:12:10.139Z,14.63
2022-09-13T05:12:42.450Z,20.58
2022-09-13T05:13:14.861Z,16.63
2022-09-13T05:13:55.408Z,13.68
2022-09-13T05:14:27.718Z,19.38
2022-09-13T05:14:59.996Z,18.15
2022-09-13T05:15:32.283Z,18.73
2022-09-13T05:16:05.867Z,20.17
2022-09-13T05:16:38.299Z,23.05
2022-09-13T05:17:10.634Z,16.85
2022-09-13T05:17:42.934Z,20.08
2022-09-13T05:18:15.561Z,19.15
2022-09-13T05:18:48.145Z,20.67
2022-09-13T05:19:20.755Z,22.88
2022-09-13T05:19:53.078Z,12.68
2022-09-13T05:20:28.211Z,16.00
2022-09-13T05:21:01.241Z,15.30
2022-09-13T05:21:33.778Z,19.75
2022-09-13T05:22:06.288Z,17.23
2022-09-13T05:22:38.541Z,18.45
2022-09-13T05:23:10.981Z,28.15
2022-09-13T05:23:43.407Z,21.08
2022-09-13T05:24:15.677Z,24.75
2022-09-13T05:24:48.036Z,14.73
2022-09-13T05:25:23.043Z,20.35
2022-09-13T05:25:59.498Z,20.20
2022-09-13T05:26:31.946Z,20.35
2022-09-13T05:27:04.443Z,16.13
2022-09-13T05:27:36.748Z,15.23
2022-09-13T05:28:09.120Z,26.75
2022-09-13T05:28:41.343Z,41.17
2022-09-13T05:29:13.770Z,20.83
2022-09-13T05:29:46.147Z,16.85
2022-09-13T05:30:18.475Z,22.98
2022-09-13T05:30:58.177Z,17.38
2022-09-13T05:31:32.710Z,20.48
2022-09-13T05:32:05.093Z,16.23
2022-09-13T05:32:37.422Z,19.63
2022-09-13T05:33:09.698Z,25.52
2022-09-13T05:33:42.129Z,21.45
2022-09-13T05:34:15.616Z,26.40
2022-09-13T05:34:48.033Z,22.88
2022-09-13T05:35:20.346Z,16.67
2022-09-13T05:35:52.812Z,20.50
2022-09-13T05:36:25.551Z,15.93
2022-09-13T05:36:57.880Z,13.45
2022-09-13T05:37:30.272Z,20.75
2022-09-13T05:38:02.753Z,14.50
2022-09-13T05:38:35.142Z,22.25
2022-09-13T05:40:11.152Z,18.17
2022-09-13T05:40:44.309Z,15.55
2022-09-13T05:41:16.798Z,23.30
2022-09-13T05:41:49.429Z,12.77
2022-09-13T05:42:21.753Z,18.25
2022-09-13T05:42:54.303Z,14.73
2022-09-13T05:43:27.917Z,18.23
2022-09-13T05:44:10.383Z,20.77
2022-09-13T05:44:45.424Z,15.00
2022-09-13T05:45:17.717Z,15.63
2022-09-13T05:45:50.056Z,17.38
2022-09-13T05:46:22.789Z,16.65
2022-09-13T05:46:55.310Z,13.88
2022-09-13T05:47:27.743Z,14.07
2022-09-13T05:48:00.120Z,13.30
2022-09-13T05:48:33.129Z,13.65
2022-09-13T05:49:05.728Z,16.13
2022-09-13T05:49:55.221Z,14.30
2022-09-13T05:50:56.780Z,13.68
2022-09-13T05:51:23.099Z,14.38
2022-09-13T05:51:55.339Z,13.85
2022-09-13T05:52:27.775Z,16.33
2022-09-13T05:53:00.188Z,10.68
2022-09-13T05:53:33.438Z,13.02
2022-09-13T05:54:05.940Z,16.85
2022-09-13T05:54:38.325Z,12.35
2022-09-13T05:55:10.977Z,14.32
2022-09-13T05:55:43.252Z,11.02
2022-09-13T05:56:17.043Z,17.80
2022-09-13T05:56:49.509Z,13.10
2022-09-13T05:57:21.975Z,13.60
2022-09-13T05:57:54.499Z,14.57
2022-09-13T05:58:26.780Z,12.00
2022-09-13T05:58:59.337Z,18.45
2022-09-13T05:59:32.005Z,16.08
2022-09-13T06:00:05.106Z,14.75
2022-09-13T06:00:44.984Z,10.88
2022-09-13T06:01:18.780Z,11.38
2022-09-13T06:01:51.354Z,13.13
2022-09-13T06:02:23.805Z,11.73
2022-09-13T06:02:56.794Z,12.73
2022-09-13T06:03:29.128Z,14.52
2022-09-13T06:04:01.481Z,13.70
2022-09-13T06:04:35.403Z,17.33
2022-09-13T06:05:10.910Z,10.95
2022-09-13T06:05:43.345Z,12.18
2022-09-13T06:06:15.971Z,14.02
2022-09-13T06:06:48.414Z,9.48
2022-09-13T06:07:20.783Z,15.27
2022-09-13T06:07:53.088Z,12.27
2022-09-13T06:08:29.439Z,12.50
2022-09-13T06:09:01.840Z,10.82
2022-09-13T06:09:34.266Z,11.63
2022-09-13T06:10:06.749Z,13.15
2022-09-13T06:10:39.003Z,10.73
2022-09-13T06:11:12.555Z,14.38
2022-09-13T06:11:44.877Z,11.98
2022-09-13T06:12:17.365Z,11.98
2022-09-13T06:12:50.728Z,11.15
2022-09-13T06:13:23.183Z,12.20
2022-09-13T06:13:55.535Z,10.88
2022-09-13T06:14:27.797Z,10.65
2022-09-13T06:15:00.492Z,11.32
2022-09-13T06:15:32.944Z,14.88
2022-09-13T06:16:07.217Z,13.70
2022-09-13T06:16:39.615Z,16.80
2022-09-13T06:17:11.875Z,13.43
2022-09-13T06:17:44.142Z,19.10
2022-09-13T06:18:17.782Z,16.25
2022-09-13T06:18:50.470Z,11.38
2022-09-13T06:19:23.162Z,11.70
2022-09-13T06:19:56.950Z,9.43
2022-09-13T06:20:29.408Z,11.32
2022-09-13T06:21:01.754Z,9.75
2022-09-13T06:21:34.109Z,9.85
2022-09-13T06:22:06.815Z,12.23
2022-09-13T06:22:39.888Z,12.02
2022-09-13T06:23:12.562Z,8.38
2022-09-13T06:23:48.740Z,11.70
2022-09-13T06:24:21.220Z,13.00
2022-09-13T06:24:53.532Z,15.43
2022-09-13T06:25:25.791Z,11.40
2022-09-13T06:26:04.951Z,12.90
2022-09-13T06:26:37.421Z,12.23
2022-09-13T06:27:10.678Z,12.10
2022-09-13T06:27:43.100Z,14.00
2022-09-13T06:28:15.416Z,14.35
2022-09-13T06:28:49.198Z,13.35
2022-09-13T06:29:21.977Z,15.80
2022-09-13T06:29:55.582Z,11.07
2022-09-13T06:30:27.820Z,12.98
2022-09-13T06:31:04.247Z,15.57
2022-09-13T06:31:38.956Z,12.48
2022-09-13T06:32:11.268Z,11.20
2022-09-13T06:32:43.664Z,11.75
2022-09-13T06:33:16.484Z,13.68
2022-09-13T06:33:49.078Z,13.73
2022-09-13T06:34:21.357Z,11.40
2022-09-13T06:34:53.710Z,13.82
2022-09-13T06:35:26.059Z,15.27
2022-09-13T06:36:00.697Z,14.38
2022-09-13T06:36:33.170Z,11.63
2022-09-13T06:37:05.495Z,12.00
2022-09-13T06:37:37.831Z,13.35
2022-09-13T06:38:10.468Z,9.90
2022-09-13T06:38:42.784Z,14.00
2022-09-13T06:39:15.545Z,13.50
2022-09-13T06:39:48.143Z,12.98
2022-09-13T06:40:25.226Z,9.48
2022-09-13T06:41:01.846Z,10.48
2022-09-13T06:41:34.391Z,13.45
2022-09-13T06:42:06.701Z,13.25
2022-09-13T06:42:45.260Z,12.82
2022-09-13T06:43:17.551Z,13.07
2022-09-13T06:43:54.150Z,18.00
2022-09-13T06:44:26.663Z,10.20
2022-09-13T06:44:58.981Z,12.48
2022-09-13T06:45:31.309Z,10.98
2022-09-13T06:46:13.761Z,14.50
2022-09-13T06:46:46.417Z,12.23
2022-09-13T06:47:18.723Z,11.27
2022-09-13T06:47:53.458Z,15.75
2022-09-13T06:48:25.793Z,12.88
2022-09-13T06:49:01.871Z,15.95
2022-09-13T06:49:34.196Z,12.48
2022-09-13T06:50:07.984Z,13.95
2022-09-13T06:50:40.303Z,15.23
2022-09-13T06:51:14.272Z,15.02
2022-09-13T06:51:46.579Z,12.10
2022-09-13T06:52:19.030Z,13.43
2022-09-13T06:52:51.385Z,11.60
2022-09-13T06:53:23.750Z,18.15
2022-09-13T06:53:57.007Z,15.43
2022-09-13T06:54:29.340Z,13.75
2022-09-13T06:55:01.615Z,12.00
2022-09-13T06:55:33.926Z,11.63
2022-09-13T06:56:06.531Z,12.70
2022-09-13T06:56:39.183Z,13.40
2022-09-13T06:57:11.771Z,14.48
2022-09-13T06:57:44.263Z,15.43
2022-09-13T06:58:16.658Z,11.48
2022-09-13T06:58:51.427Z,11.52
2022-09-13T06:59:23.767Z,12.70
2022-09-13T06:59:56.190Z,12.25
2022-09-13T07:00:28.424Z,20.90
2022-09-13T07:01:10.021Z,12.70
2022-09-13T07:01:43.751Z,16.63
2022-09-13T07:02:16.209Z,15.10
2022-09-13T07:02:52.319Z,15.73
2022-09-13T07:03:24.758Z,14.43
2022-09-13T07:04:01.641Z,14.93
2022-09-13T07:04:33.924Z,15.43
2022-09-13T07:05:06.881Z,11.93
2022-09-13T07:05:39.122Z,16.65
2022-09-13T07:06:17.201Z,15.18
2022-09-13T07:06:52.923Z,12.60
2022-09-13T07:07:25.604Z,13.32
2022-09-13T07:07:57.941Z,12.88
2022-09-13T07:08:31.802Z,14.35
2022-09-13T07:09:05.618Z,12.20
2022-09-13T07:09:37.999Z,18.27
2022-09-13T07:10:10.264Z,15.73
2022-09-13T07:10:42.526Z,12.57
2022-09-13T07:11:15.635Z,15.05
2022-09-13T07:11:48.767Z,15.18
2022-09-13T07:12:21.404Z,12.00
2022-09-13T07:12:53.668Z,14.85
2022-09-13T07:13:26.339Z,12.98
2022-09-13T07:13:59.134Z,13.73
2022-09-13T07:14:31.606Z,12.88
2022-09-13T07:15:04.248Z,14.25
2022-09-13T07:15:37.248Z,12.50
2022-09-13T07:16:11.007Z,15.85
2022-09-13T07:16:43.789Z,11.75
2022-09-13T07:17:16.255Z,15.02
2022-09-13T07:17:48.690Z,16.63
2022-09-13T07:18:21.007Z,13.10
2022-09-13T07:18:54.502Z,18.95
2022-09-13T07:19:27.675Z,14.90
2022-09-13T07:20:00.397Z,15.88
2022-09-13T07:20:32.969Z,18.00
2022-09-13T07:21:06.969Z,15.88
2022-09-13T07:21:39.294Z,12.07
2022-09-13T07:22:11.750Z,13.18
2022-09-13T07:22:43.950Z,12.50
2022-09-13T07:23:16.243Z,12.75
2022-09-13T07:23:48.631Z,10.38
2022-09-13T07:24:21.827Z,12.55
2022-09-13T07:24:54.443Z,15.85
2022-09-13T07:25:26.749Z,11.23
2022-09-13T07:26:02.519Z,11.30
2022-09-13T07:26:35.158Z,14.88
2022-09-13T07:27:07.425Z,14.02
2022-09-13T07:27:40.022Z,13.73
2022-09-13T07:28:12.340Z,11.43
2022-09-13T07:28:46.011Z,12.57
2022-09-13T07:29:19.767Z,11.52
2022-09-13T07:29:52.264Z,12.52
2022-09-13T07:30:26.922Z,16.10
2022-09-13T07:31:06.823Z,14.32
2022-09-13T07:31:40.333Z,11.45
2022-09-13T07:32:12.590Z,17.27
2022-09-13T07:32:44.970Z,13.10
2022-09-13T07:33:17.405Z,12.68
2022-09-13T07:34:02.940Z,12.50
2022-09-13T07:34:35.930Z,15.38
2022-09-13T07:35:08.316Z,13.50
2022-09-13T07:35:40.607Z,13.20
2022-09-13T07:36:13.858Z,11.10
2022-09-13T07:36:47.148Z,13.82
2022-09-13T07:37:19.510Z,13.02
2022-09-13T07:37:52.048Z,18.42
2022-09-13T07:38:24.389Z,13.90
2022-09-13T07:38:57.395Z,10.32
2022-09-13T07:39:29.737Z,15.48
2022-09-13T07:40:02.604Z,14.70